Time;durP1;ratioP1;P1;durP2;ratioP2;P2;SDS_P1;SDS_P2;PMS_P1;PMS_P2;Temp;Humidity;BMP_temperature;BMP_pressure;BME280_temperature;BME280_humidity;BME280_pressure;Samples;Min_cycle;Max_cycle;Signal;HPM_P1;HPM_P2
2023/12/15 00:02:10;;;;;;;12.97;9.80;;;7.90;99.90;;;;;;10410988;28;20611;-77
2023/12/15 00:07:14;;;;;;;10.27;9.10;;;7.90;99.90;;;;;;10412023;28;20195;-77
2023/12/15 00:12:16;;;;;;;10.60;9.43;;;7.90;99.90;;;;;;10410584;28;20210;-77
2023/12/15 00:17:18;;;;;;;10.03;9.03;;;7.90;99.90;;;;;;10419270;28;20698;-77
2023/12/15 00:22:22;;;;;;;9.20;8.20;;;7.90;99.90;;;;;;10415882;28;20632;-77
2023/12/15 00:27:25;;;;;;;8.93;8.03;;;7.90;99.90;;;;;;10422186;28;20667;-77
2023/12/15 00:32:27;;;;;;;8.53;7.73;;;7.90;99.90;;;;;;10414335;28;20759;-77
2023/12/15 00:37:31;;;;;;;8.00;7.20;;;7.90;99.90;;;;;;10420517;28;20202;-77
2023/12/15 00:42:33;;;;;;;8.33;7.63;;;7.90;99.90;;;;;;10410819;28;20233;-77
2023/12/15 00:47:35;;;;;;;8.33;7.43;;;7.80;99.90;;;;;;10424371;28;20208;-76
2023/12/15 00:52:39;;;;;;;9.10;8.20;;;7.80;99.90;;;;;;10434457;28;20737;-77
2023/12/15 00:57:41;;;;;;;9.00;8.10;;;7.80;99.90;;;;;;10446296;28;20205;-77
2023/12/15 01:02:44;;;;;;;8.30;7.20;;;7.70;99.90;;;;;;10446726;28;20217;-77
2023/12/15 01:07:47;;;;;;;8.10;7.30;;;7.70;99.90;;;;;;10447250;28;20670;-77
2023/12/15 01:12:49;;;;;;;7.73;7.00;;;7.70;99.90;;;;;;10447456;28;20263;-77
2023/12/15 01:17:52;;;;;;;7.70;6.93;;;7.60;99.90;;;;;;10446271;28;20468;-78
2023/12/15 01:22:55;;;;;;;8.10;7.30;;;7.60;99.90;;;;;;10447308;28;20279;-77
2023/12/15 01:27:58;;;;;;;7.70;7.00;;;7.70;99.90;;;;;;10446735;28;20694;-77
2023/12/15 01:33:00;;;;;;;10.03;8.50;;;7.70;99.90;;;;;;10444750;28;20221;-77
2023/12/15 01:38:04;;;;;;;8.23;7.43;;;7.70;99.90;;;;;;10448209;28;20696;-77
2023/12/15 01:43:06;;;;;;;9.17;8.20;;;7.70;99.90;;;;;;10448471;28;20224;-77
2023/12/15 01:48:08;;;;;;;9.73;8.73;;;7.70;99.90;;;;;;10448683;28;20193;-77
2023/12/15 01:53:12;;;;;;;9.23;8.43;;;7.70;99.90;;;;;;10448796;28;20229;-76
2023/12/15 01:58:15;;;;;;;11.10;9.70;;;7.70;99.90;;;;;;10447135;28;20247;-77
2023/12/15 02:03:17;;;;;;;10.30;9.30;;;7.60;99.90;;;;;;10436994;28;20225;-77
2023/12/15 02:08:21;;;;;;;10.57;9.67;;;7.50;99.90;;;;;;10419683;28;20208;-77
2023/12/15 02:13:23;;;;;;;11.40;10.40;;;7.40;99.90;;;;;;10408065;28;20221;-76
2023/12/15 02:18:26;;;;;;;11.07;10.07;;;7.30;99.90;;;;;;10407835;28;20639;-76
2023/12/15 02:23:29;;;;;;;11.70;10.60;;;7.20;99.90;;;;;;10408759;28;20267;-77
2023/12/15 02:28:32;;;;;;;11.97;10.77;;;7.10;99.90;;;;;;10409240;28;20198;-76
2023/12/15 02:33:34;;;;;;;11.17;10.03;;;7.10;99.90;;;;;;10392166;28;20761;-75
2023/12/15 02:38:38;;;;;;;13.00;10.47;;;7.00;99.90;;;;;;10409317;28;20722;-76
2023/12/15 02:43:40;;;;;;;11.97;10.30;;;6.90;99.90;;;;;;10409692;28;20225;-77
2023/12/15 02:48:42;;;;;;;11.40;10.20;;;6.80;99.90;;;;;;10409993;28;20198;-77
2023/12/15 02:53:46;;;;;;;11.63;10.60;;;6.60;99.90;;;;;;10410465;28;20214;-77
2023/12/15 02:58:48;;;;;;;12.50;11.27;;;6.70;99.90;;;;;;10410409;28;20198;-76
2023/12/15 03:03:51;;;;;;;13.37;11.80;;;6.70;99.90;;;;;;10410987;28;20730;-77
2023/12/15 03:08:55;;;;;;;11.40;10.30;;;6.70;99.90;;;;;;10411322;28;20206;-77
2023/12/15 03:13:57;;;;;;;12.30;11.10;;;6.80;99.90;;;;;;10410959;28;20909;-76
2023/12/15 03:18:59;;;;;;;11.53;10.53;;;6.80;99.90;;;;;;10410797;28;20491;-77
2023/12/15 03:24:03;;;;;;;11.43;10.43;;;6.90;99.90;;;;;;10411073;28;20702;-77
2023/12/15 03:29:05;;;;;;;10.30;9.40;;;6.90;99.90;;;;;;10412843;28;20220;-77
2023/12/15 03:34:08;;;;;;;10.43;9.43;;;6.90;99.90;;;;;;10412726;28;21005;-77
2023/12/15 03:39:11;;;;;;;9.57;8.77;;;6.90;99.90;;;;;;10413161;28;20240;-77
2023/12/15 03:44:13;;;;;;;12.00;10.53;;;7.00;99.90;;;;;;10412991;28;20286;-77
2023/12/15 03:49:16;;;;;;;10.43;9.43;;;7.00;99.90;;;;;;10414006;28;20224;-77
2023/12/15 03:54:19;;;;;;;10.93;9.83;;;7.10;99.90;;;;;;10421827;28;20205;-77
2023/12/15 03:59:22;;;;;;;9.63;8.73;;;7.10;99.90;;;;;;10422364;28;20218;-76
2023/12/15 04:04:24;;;;;;;9.50;8.60;;;7.20;99.90;;;;;;10422220;28;20226;-77
2023/12/15 04:09:28;;;;;;;9.93;8.63;;;7.30;99.90;;;;;;10422615;28;20194;-76
2023/12/15 04:14:30;;;;;;;9.40;8.40;;;7.30;99.90;;;;;;10422739;28;20636;-77
2023/12/15 04:19:32;;;;;;;8.70;7.90;;;7.40;99.90;;;;;;10422396;28;20267;-77
2023/12/15 04:24:36;;;;;;;9.30;8.50;;;7.40;99.90;;;;;;10422728;28;20582;-77
2023/12/15 04:29:38;;;;;;;8.77;7.97;;;7.40;99.90;;;;;;10424091;28;20209;-77
2023/12/15 04:34:41;;;;;;;8.73;7.73;;;7.40;99.90;;;;;;10423378;28;20228;-77
2023/12/15 04:39:46;;;;;;;8.57;7.77;;;7.40;99.90;;;;;;10424074;28;20194;-75
2023/12/15 04:44:48;;;;;;;8.67;7.87;;;7.40;99.90;;;;;;10424039;28;20226;-77
2023/12/15 04:49:51;;;;;;;8.50;7.67;;;7.40;99.90;;;;;;10424637;28;20200;-76
2023/12/15 04:54:55;;;;;;;7.83;7.13;;;7.40;99.90;;;;;;10424320;28;20222;-76
2023/12/15 04:59:57;;;;;;;8.83;7.60;;;7.40;99.90;;;;;;10422369;28;20213;-77
2023/12/15 05:04:59;;;;;;;5.97;5.47;;;7.40;99.90;;;;;;10418691;28;20226;-75
2023/12/15 05:10:04;;;;;;;7.30;6.70;;;7.40;99.90;;;;;;10425047;28;20198;-75
2023/12/15 05:15:07;;;;;;;8.30;7.50;;;7.40;99.90;;;;;;10424749;28;20691;-76
2023/12/15 05:20:12;;;;;;;8.57;7.77;;;7.40;99.90;;;;;;10425669;28;20194;-76
2023/12/15 05:25:15;;;;;;;8.80;8.03;;;7.40;99.90;;;;;;10424882;28;20361;-76
2023/12/15 05:30:18;;;;;;;8.03;7.23;;;7.40;99.90;;;;;;10425654;28;20691;-76
2023/12/15 05:35:20;;;;;;;8.47;7.57;;;7.50;99.90;;;;;;10425856;28;20221;-76
2023/12/15 05:40:24;;;;;;;8.60;7.80;;;7.40;99.90;;;;;;10426536;28;20252;-76
2023/12/15 05:45:26;;;;;;;9.57;8.67;;;7.50;99.90;;;;;;10425965;28;20229;-76
2023/12/15 05:50:29;;;;;;;9.30;8.00;;;7.50;99.90;;;;;;10421456;28;20201;-75
2023/12/15 05:55:32;;;;;;;8.37;7.47;;;7.50;99.90;;;;;;10425878;28;20222;-75
2023/12/15 06:00:35;;;;;;;8.40;7.63;;;7.50;99.90;;;;;;10426760;28;20202;-74
2023/12/15 06:05:37;;;;;;;11.17;8.53;;;7.60;99.90;;;;;;10427101;28;20236;-76
2023/12/15 06:10:42;;;;;;;11.20;9.43;;;7.60;99.90;;;;;;10427717;28;20190;-76
2023/12/15 06:15:44;;;;;;;10.57;7.53;;;7.60;99.90;;;;;;10406799;28;20715;-76
2023/12/15 06:20:46;;;;;;;9.93;8.93;;;7.70;99.90;;;;;;10411886;28;20207;-75
2023/12/15 06:25:50;;;;;;;9.87;8.97;;;7.70;99.90;;;;;;10389043;28;20249;-75
2023/12/15 06:30:52;;;;;;;8.27;7.47;;;7.70;99.90;;;;;;10390949;28;20210;-75
2023/12/15 06:35:54;;;;;;;8.80;8.00;;;7.80;99.90;;;;;;10392260;28;20202;-76
2023/12/15 06:40:58;;;;;;;9.13;8.23;;;7.80;99.90;;;;;;10391548;28;20201;-75
2023/12/15 06:46:00;;;;;;;9.07;8.17;;;7.80;99.90;;;;;;10383946;28;20296;-76
2023/12/15 06:51:03;;;;;;;9.50;8.67;;;7.80;99.90;;;;;;10421931;28;20277;-76
2023/12/15 06:56:08;;;;;;;8.60;7.80;;;7.80;99.90;;;;;;10429172;28;20361;-76
2023/12/15 07:01:10;;;;;;;8.47;7.67;;;7.80;99.90;;;;;;10423379;28;20229;-76
2023/12/15 07:06:13;;;;;;;8.23;7.50;;;7.80;99.90;;;;;;10429785;28;20230;-77
2023/12/15 07:11:16;;;;;;;7.87;7.17;;;7.80;99.90;;;;;;10429541;28;20217;-76
2023/12/15 07:16:19;;;;;;;8.03;7.33;;;7.80;99.90;;;;;;10430536;28;20202;-76
2023/12/15 07:21:21;;;;;;;10.97;8.73;;;7.80;99.90;;;;;;10431156;28;20215;-74
2023/12/15 07:26:25;;;;;;;7.57;6.97;;;7.80;99.90;;;;;;10434735;28;20639;-76
2023/12/15 07:31:27;;;;;;;6.07;5.57;;;7.80;99.90;;;;;;10427912;28;20240;-75
2023/12/15 07:36:30;;;;;;;7.77;7.07;;;7.80;99.90;;;;;;10440168;28;20643;-76
2023/12/15 07:41:37;;;;;;;8.50;7.80;;;7.80;99.90;;;;;;10440814;28;20228;-76
2023/12/15 07:46:40;;;;;;;8.00;7.20;;;7.80;99.90;;;;;;10440831;28;20237;-75
2023/12/15 07:51:42;;;;;;;9.30;8.40;;;7.80;99.90;;;;;;10441187;28;20252;-76
2023/12/15 07:56:46;;;;;;;8.60;7.77;;;7.80;99.90;;;;;;10440060;28;20691;-76
2023/12/15 08:01:50;;;;;;;8.40;7.70;;;7.80;99.90;;;;;;10427113;28;20229;-76
2023/12/15 08:06:52;;;;;;;10.60;9.67;;;7.80;99.90;;;;;;10440593;28;20260;-76
2023/12/15 08:11:56;;;;;;;9.50;8.70;;;7.80;99.90;;;;;;10441742;28;20222;-76
2023/12/15 08:16:58;;;;;;;9.60;8.67;;;7.80;99.90;;;;;;10445897;28;20644;-77
2023/12/15 08:22:01;;;;;;;10.20;8.57;;;7.80;99.90;;;;;;10449479;28;20237;-78
2023/12/15 08:27:05;;;;;;;11.37;10.27;;;7.90;99.90;;;;;;10447559;28;20244;-77
2023/12/15 08:32:08;;;;;;;10.03;9.10;;;7.90;99.90;;;;;;10430701;28;20217;-77
2023/12/15 08:37:11;;;;;;;12.23;10.23;;;8.00;99.90;;;;;;10445763;28;20194;-77
2023/12/15 08:42:14;;;;;;;12.83;11.53;;;8.10;99.90;;;;;;10446833;28;20230;-77
2023/12/15 08:47:17;;;;;;;12.97;10.87;;;8.10;99.90;;;;;;10445974;28;20213;-78
2023/12/15 08:52:19;;;;;;;11.03;9.83;;;8.10;99.90;;;;;;10445353;28;20695;-78
2023/12/15 08:57:23;;;;;;;10.93;9.60;;;8.10;99.90;;;;;;10445184;28;20193;-76
2023/12/15 09:02:25;;;;;;;11.43;10.23;;;8.20;99.90;;;;;;10432380;28;20279;-77
2023/12/15 09:07:28;;;;;;;10.73;9.63;;;8.20;99.90;;;;;;10448222;28;20209;-77
2023/12/15 09:12:32;;;;;;;11.43;10.33;;;8.30;99.90;;;;;;10450025;28;20287;-78
2023/12/15 09:17:34;;;;;;;10.87;9.87;;;8.30;99.90;;;;;;10453645;28;20259;-77
2023/12/15 09:22:36;;;;;;;12.47;10.73;;;8.30;99.90;;;;;;10457030;28;20264;-77
2023/12/15 09:27:40;;;;;;;11.83;10.63;;;8.40;99.90;;;;;;10453438;28;20683;-78
2023/12/15 09:32:43;;;;;;;10.10;9.10;;;8.40;99.90;;;;;;10424443;28;20230;-78
2023/12/15 09:37:45;;;;;;;10.87;9.73;;;8.40;99.90;;;;;;10448518;28;20198;-76
2023/12/15 09:42:49;;;;;;;12.63;10.07;;;8.50;99.90;;;;;;10445985;28;20225;-76
2023/12/15 09:47:52;;;;;;;10.17;8.97;;;8.50;99.90;;;;;;10445550;28;20225;-76
2023/12/15 09:52:56;;;;;;;10.33;9.17;;;8.60;99.90;;;;;;10446560;28;20631;-76
2023/12/15 09:58:01;;;;;;;10.17;8.60;;;8.60;99.90;;;;;;10417388;28;20194;-76
2023/12/15 10:03:03;;;;;;;10.80;9.70;;;8.60;99.90;;;;;;10401944;28;20734;-75
2023/12/15 10:08:06;;;;;;;10.53;9.40;;;8.70;99.90;;;;;;10419671;28;20232;-76
2023/12/15 10:13:10;;;;;;;10.63;9.53;;;8.70;99.90;;;;;;10412947;28;20276;-76
2023/12/15 10:18:14;;;;;;;13.73;10.17;;;8.70;99.90;;;;;;10405186;28;20201;-76
2023/12/15 10:23:26;;;;;;;11.17;9.83;;;8.70;99.90;;;;;;10417110;28;20225;-76
2023/12/15 10:28:35;;;;;;;11.83;10.40;;;8.70;99.90;;;;;;10417978;28;20222;-75
2023/12/15 10:33:38;;;;;;;11.13;10.03;;;8.80;99.90;;;;;;10424177;28;20226;-76
2023/12/15 10:38:40;;;;;;;11.30;9.70;;;8.90;99.90;;;;;;10412545;28;20210;-76
2023/12/15 10:43:47;;;;;;;10.93;9.83;;;9.00;99.90;;;;;;10418693;28;20760;-76
2023/12/15 10:48:53;;;;;;;10.63;9.60;;;9.00;99.90;;;;;;10399687;28;20200;-77
2023/12/15 10:53:58;;;;;;;9.27;8.37;;;9.10;99.90;;;;;;10418949;28;20632;-76
2023/12/15 10:59:02;;;;;;;10.50;8.37;;;9.20;99.90;;;;;;10411045;28;20213;-77
2023/12/15 11:04:17;;;;;;;8.80;7.90;;;9.30;99.90;;;;;;10416767;28;20225;-76
2023/12/15 11:09:32;;;;;;;9.10;8.20;;;9.40;99.90;;;;;;10399850;28;20200;-77
2023/12/15 11:14:35;;;;;;;8.40;7.60;;;9.50;99.90;;;;;;10417913;28;20225;-76
2023/12/15 11:19:38;;;;;;;10.07;8.17;;;9.50;99.90;;;;;;10410968;28;20614;-77
2023/12/15 11:24:40;;;;;;;8.53;7.73;;;9.60;99.90;;;;;;10417981;28;20229;-76
2023/12/15 11:29:44;;;;;;;6.93;6.23;;;9.60;99.90;;;;;;10397908;28;20202;-76
2023/12/15 11:34:48;;;;;;;8.03;7.33;;;9.70;99.90;;;;;;10396248;28;20630;-76
2023/12/15 11:39:50;;;;;;;7.07;6.37;;;9.80;99.90;;;;;;10407405;28;20264;-77
2023/12/15 11:44:54;;;;;;;8.40;6.70;;;9.80;99.90;;;;;;10414088;28;20222;-77
2023/12/15 11:49:56;;;;;;;7.93;7.20;;;9.80;99.90;;;;;;10408985;28;20201;-77
2023/12/15 11:54:59;;;;;;;6.90;6.30;;;9.80;99.90;;;;;;10413894;28;20272;-76
2023/12/15 12:00:03;;;;;;;6.17;5.60;;;9.90;99.90;;;;;;10403945;28;20225;-77
2023/12/15 12:05:08;;;;;;;5.93;5.37;;;9.90;99.90;;;;;;10403849;28;20229;-77
2023/12/15 12:10:11;;;;;;;5.43;5.03;;;9.90;99.90;;;;;;10411545;28;20630;-77
2023/12/15 12:15:14;;;;;;;6.23;5.63;;;9.90;99.90;;;;;;10418573;28;20287;-76
2023/12/15 12:20:17;;;;;;;5.70;5.20;;;9.80;99.90;;;;;;10435823;28;20198;-76
2023/12/15 12:25:19;;;;;;;5.70;5.27;;;9.90;99.90;;;;;;10417963;28;20690;-76
2023/12/15 12:30:23;;;;;;;5.20;4.80;;;9.80;99.90;;;;;;10434299;28;20213;-76
2023/12/15 12:35:25;;;;;;;5.53;5.00;;;9.80;99.90;;;;;;10424631;28;20225;-77
2023/12/15 12:40:28;;;;;;;5.70;5.27;;;9.70;99.90;;;;;;10432867;28;20635;-76
2023/12/15 12:45:32;;;;;;;5.30;4.90;;;9.70;99.90;;;;;;10424786;28;20287;-76
2023/12/15 12:50:35;;;;;;;5.93;5.20;;;9.70;99.90;;;;;;10431694;28;20201;-75
2023/12/15 12:55:37;;;;;;;4.70;4.37;;;9.70;99.90;;;;;;10422011;28;20284;-77
2023/12/15 13:00:41;;;;;;;4.70;4.30;;;9.70;99.90;;;;;;10406077;28;20213;-75
2023/12/15 13:05:43;;;;;;;5.83;5.30;;;9.80;99.90;;;;;;10375135;28;20214;-76
2023/12/15 13:10:46;;;;;;;4.80;4.33;;;9.80;99.90;;;;;;10409033;28;20633;-74
2023/12/15 13:15:50;;;;;;;5.30;4.90;;;9.80;99.90;;;;;;10417244;28;20699;-75
2023/12/15 13:20:52;;;;;;;5.97;5.47;;;9.80;99.90;;;;;;10409320;28;20209;-76
2023/12/15 13:25:54;;;;;;;5.87;5.27;;;9.80;99.90;;;;;;10418220;28;20695;-76
2023/12/15 13:30:59;;;;;;;5.37;4.97;;;9.80;99.90;;;;;;10411290;28;20564;-75
2023/12/15 13:36:01;;;;;;;5.63;5.17;;;9.80;99.90;;;;;;10417376;28;20194;-77
2023/12/15 13:41:04;;;;;;;4.63;4.23;;;9.80;99.90;;;;;;10421315;28;20209;-76
2023/12/15 13:46:08;;;;;;;2.40;2.30;;;9.80;99.90;;;;;;10419015;28;20214;-75
2023/12/15 13:51:11;;;;;;;3.40;2.90;;;9.80;99.90;;;;;;10422062;28;20217;-75
2023/12/15 13:56:15;;;;;;;3.10;2.90;;;9.70;99.90;;;;;;10406276;28;20202;-75
2023/12/15 14:01:19;;;;;;;3.43;3.13;;;9.80;99.90;;;;;;10391262;28;20284;-75
2023/12/15 14:06:21;;;;;;;3.33;3.03;;;9.80;99.90;;;;;;10403823;28;20243;-74
2023/12/15 14:11:24;;;;;;;3.40;2.70;;;9.70;99.90;;;;;;10407659;28;20225;-76
2023/12/15 14:16:28;;;;;;;3.30;3.00;;;9.70;99.90;;;;;;10391595;28;20687;-75
2023/12/15 14:21:30;;;;;;;3.10;2.37;;;9.70;99.90;;;;;;10389385;28;20222;-77
2023/12/15 14:26:33;;;;;;;2.37;2.17;;;9.70;99.90;;;;;;10401009;28;20589;-76
2023/12/15 14:31:37;;;;;;;3.67;3.17;;;9.70;99.90;;;;;;10402707;28;20990;-77
2023/12/15 14:36:39;;;;;;;2.07;1.90;;;9.70;99.90;;;;;;10393642;28;20201;-77
2023/12/15 14:41:41;;;;;;;3.10;2.80;;;9.60;99.90;;;;;;10397396;28;20225;-76
2023/12/15 14:46:46;;;;;;;2.83;2.30;;;9.60;99.90;;;;;;10413339;28;20248;-76
2023/12/15 14:51:48;;;;;;;3.20;2.90;;;9.60;99.90;;;;;;10420776;28;20721;-77
2023/12/15 14:56:50;;;;;;;5.97;3.77;;;9.60;99.90;;;;;;10418133;28;20247;-77
2023/12/15 15:01:55;;;;;;;3.43;3.20;;;9.60;99.90;;;;;;10395553;28;20230;-77
2023/12/15 15:06:58;;;;;;;3.00;2.80;;;9.60;99.90;;;;;;10410229;28;20780;-76
2023/12/15 15:12:01;;;;;;;7.80;3.10;;;9.50;99.90;;;;;;10419670;28;20224;-76
2023/12/15 15:17:05;;;;;;;3.63;3.17;;;9.60;99.90;;;;;;10417559;28;20234;-76
2023/12/15 15:22:07;;;;;;;2.70;2.50;;;9.60;99.90;;;;;;10420482;28;20225;-77
2023/12/15 15:27:09;;;;;;;2.73;2.53;;;9.60;99.90;;;;;;10411038;28;20222;-77
2023/12/15 15:32:13;;;;;;;3.00;2.80;;;9.50;99.90;;;;;;10416527;28;20217;-76
2023/12/15 15:37:15;;;;;;;2.40;2.20;;;9.50;99.90;;;;;;10429479;28;20674;-77
2023/12/15 15:42:18;;;;;;;2.73;2.63;;;9.50;99.90;;;;;;10424986;28;20221;-77
2023/12/15 15:47:21;;;;;;;3.70;2.63;;;9.40;99.90;;;;;;10429749;28;20217;-76
2023/12/15 15:52:25;;;;;;;3.77;3.47;;;9.40;99.90;;;;;;10452411;28;20221;-77
2023/12/15 15:57:28;;;;;;;3.70;3.40;;;9.30;99.90;;;;;;10413911;28;20201;-76
2023/12/15 16:02:32;;;;;;;3.83;3.53;;;9.30;99.90;;;;;;10425366;28;20260;-77
2023/12/15 16:07:34;;;;;;;3.17;2.97;;;9.20;99.90;;;;;;10413453;28;20640;-76
2023/12/15 16:12:37;;;;;;;3.30;3.00;;;9.20;99.90;;;;;;10420788;28;20225;-77
2023/12/15 16:17:40;;;;;;;11.30;7.13;;;9.20;99.90;;;;;;10411922;28;20206;-76
2023/12/15 16:22:43;;;;;;;8.97;7.23;;;9.10;99.90;;;;;;10422164;28;20225;-75
2023/12/15 16:27:45;;;;;;;7.53;6.27;;;9.10;99.90;;;;;;10413289;28;20608;-77
2023/12/15 16:32:49;;;;;;;5.43;4.93;;;9.00;99.90;;;;;;10420469;28;20608;-76
2023/12/15 16:37:51;;;;;;;8.23;7.23;;;9.00;99.90;;;;;;10413643;28;20197;-74
2023/12/15 16:42:54;;;;;;;9.90;8.20;;;9.00;99.90;;;;;;10421760;28;20214;-76
2023/12/15 16:47:58;;;;;;;7.63;6.87;;;8.90;99.90;;;;;;10428237;28;20224;-75
2023/12/15 16:53:00;;;;;;;7.77;6.97;;;;;;;;;;10438571;28;20213;-82
2023/12/15 16:58:03;;;;;;;7.37;5.63;;;8.90;99.90;;;;;;10447404;28;20201;-78
2023/12/15 17:03:06;;;;;;;3.80;3.50;;;8.80;99.90;;;;;;10440973;28;20238;-78
2023/12/15 17:08:09;;;;;;;5.90;5.30;;;8.80;99.90;;;;;;10433038;28;20260;-80
2023/12/15 17:13:11;;;;;;;6.73;6.07;;;8.70;99.90;;;;;;10436169;28;20612;-79
2023/12/15 17:18:17;;;;;;;5.70;5.20;;;8.70;99.90;;;;;;10438301;28;20194;-80
2023/12/15 17:35:27;;;;;;;14.23;9.87;;;8.60;99.90;;;;;;10366568;28;20233;-78
2023/12/15 17:40:39;;;;;;;11.70;8.80;;;8.60;99.90;;;;;;10431419;28;20220;-82
2023/12/15 17:45:42;;;;;;;11.17;7.17;;;8.70;99.90;;;;;;10430868;28;20276;-83
2023/12/15 17:50:46;;;;;;;9.33;6.27;;;8.70;99.90;;;;;;10426323;28;20202;-80
2023/12/15 17:55:49;;;;;;;6.33;5.53;;;8.80;99.90;;;;;;10426824;28;20233;-82
2023/12/15 18:00:51;;;;;;;6.83;6.23;;;8.80;99.90;;;;;;10423523;28;20687;-79
2023/12/15 18:05:55;;;;;;;5.50;5.00;;;8.90;99.90;;;;;;10421299;28;20202;-79
2023/12/15 18:10:58;;;;;;;6.50;5.90;;;8.90;99.90;;;;;;10418161;28;20205;-78
2023/12/15 18:16:03;;;;;;;5.70;5.20;;;8.90;99.90;;;;;;10418103;28;20210;-81
2023/12/15 18:21:07;;;;;;;46.60;32.90;;;8.90;99.90;;;;;;10418352;28;20252;-78
2023/12/15 18:26:09;;;;;;;12.73;9.90;;;9.00;99.90;;;;;;10414665;28;20214;-80
2023/12/15 18:31:12;;;;;;;6.33;5.73;;;9.00;99.90;;;;;;10415628;28;20222;-79
2023/12/15 18:36:16;;;;;;;5.23;4.73;;;8.90;99.90;;;;;;10416014;28;20198;-80
2023/12/15 18:41:19;;;;;;;5.47;4.90;;;8.90;99.90;;;;;;10414461;28;20237;-79
2023/12/15 18:46:21;;;;;;;4.60;4.20;;;8.90;99.90;;;;;;10411199;28;20225;-78
2023/12/15 18:51:25;;;;;;;4.50;4.20;;;8.90;99.90;;;;;;10411438;28;20222;-80
2023/12/15 18:56:27;;;;;;;5.17;4.70;;;8.90;99.90;;;;;;10412982;28;20206;-81
2023/12/15 19:01:30;;;;;;;5.10;4.70;;;8.90;99.90;;;;;;10414737;28;20605;-81
2023/12/15 19:06:34;;;;;;;5.73;5.13;;;8.90;99.90;;;;;;10420890;28;20228;-80
2023/12/15 19:12:03;;;;;;;6.10;4.57;;;8.80;99.90;;;;;;10481702;22;20220;-83
2023/12/15 19:17:09;;;;;;;4.63;4.23;;;8.90;99.90;;;;;;10491658;28;20223;-82
2023/12/15 19:22:15;;;;;;;7.83;5.70;;;8.80;99.90;;;;;;10501660;28;20274;-79
2023/12/15 19:27:18;;;;;;;6.20;4.40;;;8.70;99.90;;;;;;10463094;28;20674;-83
2023/12/15 19:32:21;;;;;;;4.47;4.07;;;8.70;99.90;;;;;;10467222;28;20235;-82
2023/12/15 19:37:24;;;;;;;4.67;4.27;;;8.70;99.90;;;;;;10454041;28;20251;-82
2023/12/15 19:42:29;;;;;;;5.03;4.60;;;8.60;99.90;;;;;;10452095;28;20583;-71
2023/12/15 19:47:31;;;;;;;7.23;5.87;;;;;;;;;;10441652;28;20225;-71
2023/12/15 19:52:35;;;;;;;6.90;6.30;;;8.60;99.90;;;;;;10450363;28;20225;-73
2023/12/15 19:57:38;;;;;;;6.47;5.87;;;8.60;99.90;;;;;;10422302;28;20554;-69
2023/12/15 20:02:40;;;;;;;6.50;5.80;;;8.70;99.90;;;;;;10449299;28;20221;-72
2023/12/15 20:07:44;;;;;;;7.53;6.27;;;8.80;99.90;;;;;;10434558;28;20229;-71
2023/12/15 20:12:46;;;;;;;8.57;7.77;;;8.90;99.90;;;;;;10434292;28;20229;-71
2023/12/15 20:17:49;;;;;;;10.53;8.57;;;8.80;99.90;;;;;;10446642;28;20205;-72
2023/12/15 20:22:53;;;;;;;8.57;7.67;;;8.80;99.90;;;;;;10443789;28;20854;-71
2023/12/15 20:27:56;;;;;;;9.17;8.27;;;8.90;99.90;;;;;;10452906;28;20217;-72
2023/12/15 20:32:58;;;;;;;9.20;8.03;;;8.80;99.90;;;;;;10450983;28;20217;-70
2023/12/15 20:38:02;;;;;;;9.10;7.53;;;8.70;99.90;;;;;;10446048;28;20193;-72
2023/12/15 20:43:05;;;;;;;9.27;8.37;;;8.60;99.90;;;;;;10454222;28;20221;-69
2023/12/15 20:48:07;;;;;;;8.10;7.30;;;8.50;99.90;;;;;;10449976;28;20221;-72
2023/12/15 20:53:11;;;;;;;9.57;8.67;;;8.50;99.90;;;;;;10450239;28;20225;-74
2023/12/15 20:58:16;;;;;;;10.93;9.80;;;8.50;99.90;;;;;;10449732;28;20193;-72
2023/12/15 21:03:18;;;;;;;10.60;9.57;;;8.60;99.90;;;;;;10448035;28;20217;-72
2023/12/15 21:08:23;;;;;;;10.10;9.10;;;8.50;99.90;;;;;;10448206;28;20263;-71
2023/12/15 21:13:25;;;;;;;12.57;8.57;;;8.50;99.90;;;;;;10429091;28;20225;-70
2023/12/15 21:18:28;;;;;;;7.93;7.13;;;8.50;99.90;;;;;;10435857;28;20193;-72
2023/12/15 21:23:31;;;;;;;7.70;6.93;;;8.40;99.90;;;;;;10444621;28;20314;-71
2023/12/15 21:28:34;;;;;;;7.27;6.67;;;8.50;99.90;;;;;;10430341;28;20228;-72
2023/12/15 21:33:36;;;;;;;6.93;6.30;;;8.50;99.90;;;;;;10448673;28;20220;-72
2023/12/15 21:38:40;;;;;;;7.10;6.50;;;8.50;99.90;;;;;;10448317;28;20209;-73
2023/12/15 21:43:42;;;;;;;6.87;6.27;;;8.60;99.90;;;;;;10447745;28;20315;-73
2023/12/15 21:48:45;;;;;;;7.23;6.30;;;8.60;99.90;;;;;;10447675;28;20706;-71
2023/12/15 21:53:49;;;;;;;16.43;5.50;;;8.60;99.90;;;;;;10448051;28;20225;-70
2023/12/15 21:58:53;;;;;;;6.30;5.70;;;8.60;99.90;;;;;;10446043;28;20275;-71
2023/12/15 22:03:57;;;;;;;6.43;5.93;;;8.60;99.90;;;;;;10436931;28;20731;-71
2023/12/15 22:09:01;;;;;;;8.10;6.03;;;8.60;99.90;;;;;;10444255;28;20290;-70
2023/12/15 22:14:04;;;;;;;5.53;5.10;;;8.50;99.90;;;;;;10446318;28;20224;-68
2023/12/15 22:19:06;;;;;;;5.63;5.13;;;8.50;99.90;;;;;;10427664;28;20263;-70
2023/12/15 22:24:10;;;;;;;8.20;5.90;;;8.60;99.90;;;;;;10445679;28;20232;-71
2023/12/15 22:29:13;;;;;;;6.47;5.23;;;8.60;99.90;;;;;;10446406;28;20271;-70
2023/12/15 22:34:15;;;;;;;5.00;4.60;;;8.60;99.90;;;;;;10450113;28;20212;-70
2023/12/15 22:39:20;;;;;;;7.20;6.50;;;8.60;99.90;;;;;;10446555;28;20565;-71
2023/12/15 22:44:22;;;;;;;7.33;4.97;;;8.60;99.90;;;;;;10442451;28;20220;-72
2023/12/15 22:49:26;;;;;;;6.03;5.50;;;8.50;99.90;;;;;;10505347;22;20285;-72
2023/12/15 22:54:29;;;;;;;5.57;5.07;;;8.40;99.90;;;;;;10495460;28;20544;-75
2023/12/15 22:59:32;;;;;;;8.33;6.17;;;8.40;99.90;;;;;;10490049;28;20271;-72
2023/12/15 23:04:34;;;;;;;6.03;5.53;;;8.50;99.90;;;;;;10511289;28;20682;-73
2023/12/15 23:09:38;;;;;;;5.90;4.70;;;8.60;99.90;;;;;;10482065;28;20635;-71
2023/12/15 23:14:40;;;;;;;6.00;5.40;;;8.60;99.90;;;;;;10463294;28;20204;-73
2023/12/15 23:19:43;;;;;;;6.87;5.53;;;8.50;99.90;;;;;;10487167;28;20245;-71
2023/12/15 23:24:47;;;;;;;5.80;5.30;;;8.50;99.90;;;;;;10493057;28;20698;-72
2023/12/15 23:29:49;;;;;;;5.43;4.73;;;8.60;99.90;;;;;;10479548;28;20735;-72
2023/12/15 23:34:52;;;;;;;6.60;5.27;;;8.70;99.90;;;;;;10460864;28;20208;-70
2023/12/15 23:39:56;;;;;;;6.20;5.40;;;8.70;99.90;;;;;;10492481;28;20216;-72
2023/12/15 23:44:58;;;;;;;6.57;5.93;;;8.60;99.90;;;;;;10492889;28;20200;-72
2023/12/15 23:50:01;;;;;;;5.73;5.23;;;8.60;99.90;;;;;;10491390;28;20232;-70
2023/12/15 23:55:05;;;;;;;5.83;5.33;;;8.70;99.90;;;;;;10500052;28;20200;-82
